Bradley, Alabama
Current Conditions -  °F | °C
As of 9:58 PM on Wednesday 22 Oct 2014 (Local Time) from K0J4 Reporting Station
Clear Clear  
Wind Chill: 55°   Ceiling: Unl
Heat Index: 55°   Visibility: 10mi
Dew Point: 45°   Wind: 3mph
Humidity: 69%   Direction: 350°N
Pressure: 30.12"   Gusts: NA
Location:  31.1221°N, 86.5862°W
Report Text: K0J4 230258Z AUTO 35003KT 10SM CLR 13/07 A3012 RMK AO2 SLP197 T01280072 53018 $
Loading
Personal Weather Stations






























Interactive Weather Map
Tropical Storm Tracking
New forecast layout! Learn more

10-Day Weather Forecast

Advertisements
Track Severe Weather on mobile